createdAt,value
2023-02-11T00:01:08.330Z,37.13
2023-02-11T00:03:38.856Z,32.67
2023-02-11T00:06:10.425Z,35.13
2023-02-11T00:08:40.146Z,37.03
2023-02-11T00:11:09.634Z,36.40
2023-02-11T00:13:38.454Z,34.63
2023-02-11T00:16:10.227Z,35.30
2023-02-11T00:18:40.412Z,34.17
2023-02-11T00:21:12.998Z,34.27
2023-02-11T00:23:42.061Z,34.40
2023-02-11T00:26:14.775Z,35.03
2023-02-11T00:28:46.001Z,32.07
2023-02-11T00:31:16.345Z,33.43
2023-02-11T00:33:46.236Z,36.37
2023-02-11T00:36:20.463Z,34.57
2023-02-11T00:38:52.102Z,35.17
2023-02-11T00:41:22.614Z,34.07
2023-02-11T00:43:52.293Z,30.43
2023-02-11T00:46:21.384Z,34.53
2023-02-11T00:48:51.945Z,34.93
2023-02-11T00:51:24.842Z,33.30
2023-02-11T00:53:54.110Z,37.13
2023-02-11T00:56:23.168Z,36.60
2023-02-11T00:58:53.495Z,35.63
2023-02-11T01:01:22.517Z,33.57
2023-02-11T01:03:51.637Z,33.67
2023-02-11T01:06:20.559Z,36.87
2023-02-11T01:08:50.677Z,38.57
2023-02-11T01:11:22.045Z,35.47
2023-02-11T01:13:52.677Z,36.00
2023-02-11T01:16:22.500Z,35.10
2023-02-11T01:18:51.629Z,33.13
2023-02-11T01:21:20.599Z,36.93
2023-02-11T01:23:50.785Z,36.87
2023-02-11T01:26:19.846Z,35.83
2023-02-11T01:28:49.079Z,37.17
2023-02-11T01:31:18.220Z,37.80
2023-02-11T01:33:47.165Z,36.10
2023-02-11T01:36:15.944Z,36.83
2023-02-11T01:43:50.147Z,34.10
2023-02-11T01:46:37.082Z,35.57
2023-02-11T01:49:12.122Z,35.43
2023-02-11T01:51:48.014Z,37.27
2023-02-11T01:54:41.224Z,34.33
2023-02-11T01:57:25.291Z,37.77
2023-02-11T02:00:07.665Z,35.30
2023-02-11T02:02:54.300Z,32.87
2023-02-11T02:05:34.193Z,34.43
2023-02-11T02:08:15.742Z,35.53
2023-02-11T02:10:50.145Z,35.33
2023-02-11T02:13:18.961Z,35.00
2023-02-11T02:15:54.705Z,33.17
2023-02-11T02:18:47.768Z,36.90
2023-02-11T02:22:07.539Z,37.67
2023-02-11T02:25:20.343Z,36.00
2023-02-11T02:27:57.509Z,34.93
2023-02-11T02:31:12.309Z,36.33
2023-02-11T02:34:00.949Z,33.80
2023-02-11T02:36:42.986Z,39.97
2023-02-11T02:39:19.739Z,38.53
2023-02-11T02:41:52.162Z,39.57
2023-02-11T02:44:21.649Z,34.30
2023-02-11T02:46:50.940Z,32.47
2023-02-11T02:49:21.194Z,33.87
2023-02-11T02:52:19.661Z,33.97
2023-02-11T02:55:24.690Z,30.73
2023-02-11T02:58:15.990Z,33.13
2023-02-11T03:01:02.183Z,35.90
2023-02-11T03:03:44.469Z,30.70
2023-02-11T03:06:27.276Z,34.50
2023-02-11T03:09:04.153Z,34.77
2023-02-11T03:11:34.056Z,36.60
2023-02-11T03:14:09.242Z,35.00
2023-02-11T03:16:40.999Z,35.07
2023-02-11T03:19:16.853Z,33.80
2023-02-11T03:21:52.589Z,33.40
2023-02-11T03:24:27.335Z,36.47
2023-02-11T03:27:00.096Z,33.83
2023-02-11T03:29:38.728Z,36.23
2023-02-11T03:32:17.254Z,37.13
2023-02-11T03:34:50.983Z,35.00
2023-02-11T03:37:28.714Z,34.73
2023-02-11T03:40:04.626Z,33.27
2023-02-11T03:42:40.238Z,38.93
2023-02-11T03:45:15.226Z,34.97
2023-02-11T03:47:50.346Z,35.83
2023-02-11T03:50:22.365Z,33.23
2023-02-11T03:52:54.377Z,33.57
2023-02-11T03:55:27.885Z,33.73
2023-02-11T03:57:56.821Z,39.30
2023-02-11T04:00:32.538Z,39.03
2023-02-11T04:03:01.439Z,36.03
2023-02-11T04:05:30.434Z,38.73
2023-02-11T04:08:00.928Z,37.43
2023-02-11T04:10:29.943Z,37.53
2023-02-11T04:12:58.876Z,37.97
2023-02-11T04:15:27.997Z,39.07
2023-02-11T04:17:57.133Z,36.33
2023-02-11T04:20:26.047Z,37.93
2023-02-11T04:22:54.777Z,36.10
2023-02-11T04:25:26.004Z,34.63
2023-02-11T04:27:54.947Z,35.17
2023-02-11T04:30:24.155Z,40.23
2023-02-11T04:32:54.314Z,41.07
2023-02-11T04:35:23.300Z,36.33
2023-02-11T04:37:52.022Z,36.93
2023-02-11T04:40:29.414Z,35.13
2023-02-11T04:42:58.303Z,34.67
2023-02-11T04:45:27.209Z,36.60
2023-02-11T04:47:56.122Z,37.90
2023-02-11T04:50:24.970Z,34.17
2023-02-11T04:53:19.430Z,33.80
2023-02-11T04:55:52.587Z,34.30
2023-02-11T04:58:21.894Z,33.47
2023-02-11T05:00:50.950Z,35.33
2023-02-11T05:03:19.901Z,39.20
2023-02-11T05:05:49.306Z,34.97
2023-02-11T05:08:18.546Z,34.93
2023-02-11T05:10:48.911Z,40.23
2023-02-11T05:13:19.212Z,39.17
2023-02-11T05:15:48.332Z,38.33
2023-02-11T05:18:17.247Z,40.90
2023-02-11T05:20:46.137Z,36.97
2023-02-11T05:23:15.237Z,36.90
2023-02-11T05:25:44.092Z,40.93
2023-02-11T05:28:55.682Z,41.50
2023-02-11T05:31:24.522Z,44.23
2023-02-11T05:33:53.345Z,43.47
2023-02-11T05:36:22.158Z,41.23
2023-02-11T05:38:51.065Z,39.90
2023-02-11T05:41:20.014Z,43.93
2023-02-11T05:43:51.106Z,46.40
2023-02-11T05:46:21.576Z,45.40
2023-02-11T05:48:50.339Z,38.70
2023-02-11T05:51:19.081Z,42.20
2023-02-11T05:53:48.215Z,44.00
2023-02-11T05:56:17.197Z,36.50
2023-02-11T05:58:46.169Z,41.67
2023-02-11T06:01:30.412Z,43.50
2023-02-11T06:04:09.850Z,45.57
2023-02-11T06:06:59.819Z,43.03
2023-02-11T06:09:29.433Z,40.17
2023-02-11T06:11:59.912Z,42.43
2023-02-11T06:14:28.874Z,43.77
2023-02-11T06:17:41.537Z,43.60
2023-02-11T06:20:13.789Z,40.20
2023-02-11T06:22:42.573Z,42.17
2023-02-11T06:25:12.388Z,43.07
2023-02-11T06:27:41.568Z,42.03
2023-02-11T06:30:12.818Z,43.67
2023-02-11T06:32:45.072Z,36.47
2023-02-11T06:35:15.837Z,42.57
2023-02-11T06:37:49.748Z,40.43
2023-02-11T06:40:18.657Z,45.20
2023-02-11T06:42:47.659Z,45.27
2023-02-11T06:45:16.687Z,42.47
2023-02-11T06:47:46.880Z,40.83
2023-02-11T06:50:17.388Z,41.23
2023-02-11T06:52:46.601Z,43.20
2023-02-11T06:55:21.218Z,47.23
2023-02-11T06:57:51.430Z,42.17
2023-02-11T07:00:23.121Z,46.70
2023-02-11T07:02:53.761Z,46.13
2023-02-11T07:05:22.744Z,49.17
2023-02-11T07:07:51.742Z,52.87
2023-02-11T07:10:22.737Z,54.10
2023-02-11T07:12:51.523Z,53.37
2023-02-11T07:15:47.641Z,50.30
2023-02-11T07:18:20.691Z,54.33
2023-02-11T07:20:50.468Z,57.57
2023-02-11T07:23:19.310Z,56.10
2023-02-11T07:25:48.298Z,50.53
2023-02-11T07:28:17.512Z,66.63
2023-02-11T07:30:46.364Z,69.07
2023-02-11T07:33:45.884Z,69.07
2023-02-11T07:36:17.498Z,55.63
2023-02-11T07:38:51.612Z,51.57
2023-02-11T07:41:23.561Z,50.80
2023-02-11T07:43:57.652Z,49.63
2023-02-11T07:46:29.301Z,54.80
2023-02-11T07:49:00.874Z,50.73
2023-02-11T07:51:32.490Z,50.23
2023-02-11T07:54:03.107Z,44.43
2023-02-11T07:56:33.918Z,57.23
2023-02-11T07:59:05.369Z,48.67
2023-02-11T08:01:38.669Z,49.47
2023-02-11T08:04:09.633Z,49.47
2023-02-11T08:06:44.535Z,46.83
2023-02-11T08:09:17.928Z,46.40
2023-02-11T08:11:46.889Z,47.33
2023-02-11T08:14:16.121Z,48.17
2023-02-11T08:16:45.369Z,44.40
2023-02-11T08:19:18.270Z,47.53
2023-02-11T08:21:57.765Z,45.20
2023-02-11T08:24:26.593Z,40.87
2023-02-11T08:26:56.370Z,48.50
2023-02-11T08:29:25.808Z,43.63
2023-02-11T08:31:54.566Z,43.50
2023-02-11T08:34:24.766Z,50.80
2023-02-11T08:36:54.123Z,52.27
2023-02-11T08:39:24.903Z,67.73
2023-02-11T08:41:56.729Z,60.47
2023-02-11T08:44:26.319Z,62.20
2023-02-11T08:46:55.544Z,52.77
2023-02-11T08:49:25.884Z,45.00
2023-02-11T08:51:56.345Z,44.07
2023-02-11T08:54:26.475Z,46.97
2023-02-11T08:56:55.321Z,49.67
2023-02-11T08:59:24.815Z,45.07
2023-02-11T09:01:53.574Z,47.03
2023-02-11T09:04:22.443Z,40.90
2023-02-11T09:06:52.736Z,42.97
2023-02-11T09:09:22.312Z,46.70
2023-02-11T09:11:51.368Z,40.87
2023-02-11T09:14:23.545Z,45.40
2023-02-11T09:16:53.696Z,47.07
2023-02-11T09:19:23.205Z,47.97
2023-02-11T09:21:53.794Z,43.00
2023-02-11T09:24:22.675Z,43.23
2023-02-11T09:26:51.480Z,43.57
2023-02-11T09:29:21.358Z,41.33
2023-02-11T09:31:50.847Z,44.00
2023-02-11T09:34:20.097Z,43.77
2023-02-11T09:36:49.549Z,42.87
2023-02-11T09:39:21.546Z,41.67
2023-02-11T09:42:46.551Z,42.97
2023-02-11T09:45:21.670Z,44.77
2023-02-11T09:47:56.930Z,46.70
2023-02-11T09:50:35.295Z,43.63
2023-02-11T09:53:08.618Z,44.43
2023-02-11T09:55:43.882Z,45.00
2023-02-11T09:58:17.795Z,45.97
2023-02-11T10:00:56.552Z,44.50
2023-02-11T10:04:05.602Z,48.00
2023-02-11T10:06:45.137Z,45.07
2023-02-11T10:09:50.784Z,46.07
2023-02-11T10:12:43.944Z,45.87
2023-02-11T10:15:29.292Z,44.27
2023-02-11T10:18:19.826Z,40.80
2023-02-11T10:21:03.998Z,43.43
2023-02-11T10:23:38.963Z,43.67
2023-02-11T10:26:16.130Z,42.40
2023-02-11T10:28:50.905Z,41.33
2023-02-11T10:31:26.306Z,40.67
2023-02-11T10:34:03.188Z,42.10
2023-02-11T10:36:36.558Z,38.33
2023-02-11T10:39:17.666Z,40.63
2023-02-11T10:41:51.534Z,42.53
2023-02-11T10:44:30.884Z,41.13
2023-02-11T10:47:10.432Z,40.57
2023-02-11T10:49:42.806Z,41.77
2023-02-11T10:52:23.876Z,38.87
2023-02-11T10:55:07.209Z,40.03
2023-02-11T10:57:39.596Z,41.40
2023-02-11T11:00:36.857Z,41.07
2023-02-11T11:03:18.210Z,37.83
2023-02-11T11:05:52.763Z,39.70
2023-02-11T11:08:22.368Z,38.73
2023-02-11T11:11:04.686Z,37.23
2023-02-11T11:13:36.834Z,44.13
2023-02-11T11:16:21.708Z,40.97
2023-02-11T11:18:53.002Z,35.20
2023-02-11T11:21:25.569Z,38.03
2023-02-11T11:24:00.873Z,39.70
2023-02-11T11:26:42.803Z,41.00
2023-02-11T11:29:17.688Z,40.33
2023-02-11T11:31:57.050Z,37.80
2023-02-11T11:34:33.822Z,39.33
2023-02-11T11:37:23.401Z,38.53
2023-02-11T11:40:01.008Z,36.43
2023-02-11T11:42:36.175Z,37.97
2023-02-11T11:45:30.638Z,35.70
2023-02-11T11:48:10.455Z,36.00
2023-02-11T11:50:51.379Z,34.47
2023-02-11T11:53:34.384Z,36.70
2023-02-11T11:56:09.024Z,38.13
2023-02-11T11:59:11.808Z,41.30
2023-02-11T12:01:59.306Z,39.67
2023-02-11T12:04:59.166Z,36.43
2023-02-11T12:07:59.302Z,33.47
2023-02-11T12:11:30.719Z,37.13
2023-02-11T12:14:36.150Z,34.93
2023-02-11T12:17:21.184Z,36.93
2023-02-11T12:20:26.281Z,35.17
2023-02-11T12:23:20.062Z,34.30
2023-02-11T12:25:58.842Z,38.50
2023-02-11T12:28:42.167Z,36.20
2023-02-11T12:31:37.928Z,36.87
2023-02-11T12:34:58.176Z,36.27
2023-02-11T12:37:44.951Z,35.53
2023-02-11T12:40:23.719Z,39.40
2023-02-11T12:43:18.586Z,37.33
2023-02-11T12:46:34.674Z,37.70
2023-02-11T12:49:33.626Z,37.77
2023-02-11T12:52:45.594Z,33.97
2023-02-11T12:55:42.054Z,37.13
2023-02-11T12:58:44.830Z,40.17
2023-02-11T13:01:22.344Z,37.40
2023-02-11T13:04:01.310Z,33.97
2023-02-11T13:06:46.071Z,36.80
2023-02-11T13:09:25.361Z,38.27
2023-02-11T13:12:20.214Z,35.83
2023-02-11T13:14:53.949Z,35.07
2023-02-11T13:17:39.036Z,34.77
2023-02-11T13:21:40.746Z,37.53
2023-02-11T13:25:30.293Z,34.93
2023-02-11T13:28:16.810Z,36.60
2023-02-11T13:31:03.984Z,36.07
2023-02-11T13:33:37.048Z,34.97
2023-02-11T13:36:23.872Z,38.67
2023-02-11T13:39:02.949Z,35.33
2023-02-11T13:41:37.295Z,33.77
2023-02-11T13:44:29.512Z,38.13
2023-02-11T13:47:02.644Z,38.07
2023-02-11T13:49:41.034Z,39.17
2023-02-11T13:52:27.001Z,38.03
2023-02-11T13:55:07.789Z,37.77
2023-02-11T13:57:44.761Z,38.60
2023-02-11T14:00:50.640Z,37.67
2023-02-11T14:04:32.223Z,36.30
2023-02-11T14:07:45.566Z,37.23
2023-02-11T14:10:53.165Z,35.13
2023-02-11T14:13:27.376Z,36.97
2023-02-11T14:16:38.519Z,38.83
2023-02-11T14:19:11.411Z,37.57
2023-02-11T14:22:05.955Z,36.67
2023-02-11T14:24:57.610Z,35.20
2023-02-11T14:27:37.787Z,34.90
2023-02-11T14:30:33.996Z,35.37
2023-02-11T14:33:48.814Z,35.73
2023-02-11T14:36:59.868Z,37.50
2023-02-11T14:39:52.863Z,31.90
2023-02-11T14:42:28.956Z,34.23
2023-02-11T14:45:07.799Z,36.40
2023-02-11T14:47:47.153Z,36.40
2023-02-11T14:50:24.094Z,34.73
2023-02-11T14:52:54.821Z,34.10
2023-02-11T14:55:37.249Z,37.90
2023-02-11T14:58:18.570Z,34.27
2023-02-11T15:00:57.990Z,36.07
2023-02-11T15:03:50.763Z,36.17
2023-02-11T15:06:25.243Z,32.90
2023-02-11T15:09:02.069Z,34.07
2023-02-11T15:11:41.939Z,34.13
2023-02-11T15:14:24.349Z,36.23
2023-02-11T15:16:57.422Z,31.87
2023-02-11T15:19:35.961Z,32.10
2023-02-11T15:22:10.977Z,32.80
2023-02-11T15:24:43.343Z,33.60
2023-02-11T15:27:16.410Z,34.40
2023-02-11T15:29:52.311Z,31.57
2023-02-11T15:32:25.593Z,31.17
2023-02-11T15:35:05.149Z,34.83
2023-02-11T15:37:42.979Z,30.73
2023-02-11T15:40:16.667Z,33.40
2023-02-11T15:42:58.709Z,35.67
2023-02-11T15:45:41.736Z,31.03
2023-02-11T15:48:16.710Z,34.57
2023-02-11T15:50:54.436Z,35.47
2023-02-11T15:53:30.679Z,29.93
2023-02-11T15:56:10.158Z,33.97
2023-02-11T15:58:40.323Z,34.37
2023-02-11T16:01:15.579Z,33.20
2023-02-11T16:03:51.150Z,34.70
2023-02-11T16:06:24.361Z,33.87
2023-02-11T16:09:03.260Z,33.43
2023-02-11T16:11:35.354Z,36.40
2023-02-11T16:14:22.685Z,34.17
2023-02-11T16:16:57.689Z,37.70
2023-02-11T16:19:29.845Z,39.57
2023-02-11T16:22:03.696Z,36.83
2023-02-11T16:24:36.935Z,33.77
2023-02-11T16:27:19.809Z,34.97
2023-02-11T16:29:50.773Z,35.47
2023-02-11T16:32:24.708Z,37.23
2023-02-11T16:34:57.976Z,38.83
2023-02-11T16:37:27.926Z,36.60
2023-02-11T16:39:58.176Z,36.63
2023-02-11T16:42:27.410Z,37.97
2023-02-11T16:44:56.087Z,37.03
2023-02-11T16:47:29.961Z,38.57
2023-02-11T16:50:00.598Z,38.13
2023-02-11T16:52:31.460Z,38.13
2023-02-11T16:55:01.418Z,36.47
2023-02-11T16:57:57.996Z,39.53
2023-02-11T17:00:28.182Z,40.13
2023-02-11T17:03:00.532Z,35.03
2023-02-11T17:05:29.551Z,37.23
2023-02-11T17:07:59.138Z,36.43
2023-02-11T17:10:28.028Z,38.30
2023-02-11T17:12:57.106Z,33.10
2023-02-11T17:15:26.213Z,36.73
2023-02-11T17:17:55.275Z,37.10
2023-02-11T17:20:27.974Z,35.10
2023-02-11T17:22:57.246Z,33.30
2023-02-11T17:25:27.470Z,34.10
2023-02-11T17:27:58.219Z,36.37
2023-02-11T17:30:35.881Z,38.13
2023-02-11T17:33:36.440Z,35.37
2023-02-11T17:36:10.383Z,34.03
2023-02-11T17:38:42.059Z,34.60
2023-02-11T17:41:11.774Z,36.33
2023-02-11T17:43:43.307Z,33.27
2023-02-11T17:46:19.366Z,34.63
2023-02-11T17:48:51.781Z,34.80
2023-02-11T17:51:28.457Z,35.73
2023-02-11T17:54:02.807Z,35.37
2023-02-11T17:56:35.793Z,33.23
2023-02-11T17:59:06.156Z,30.90
2023-02-11T18:01:36.500Z,32.03
2023-02-11T18:04:07.822Z,34.17
2023-02-11T18:06:40.327Z,30.23
2023-02-11T18:09:09.705Z,32.60
2023-02-11T18:11:42.828Z,32.23
2023-02-11T18:14:12.962Z,31.57
2023-02-11T18:16:45.460Z,31.80
2023-02-11T18:19:16.075Z,30.37
2023-02-11T18:21:49.053Z,30.47
2023-02-11T18:24:18.355Z,27.73
2023-02-11T18:26:47.256Z,29.93
2023-02-11T18:29:16.036Z,29.47
2023-02-11T18:31:45.006Z,29.00
2023-02-11T18:34:14.415Z,29.03
2023-02-11T18:36:43.338Z,27.67
2023-02-11T18:39:14.317Z,28.77
2023-02-11T18:41:43.681Z,26.60
2023-02-11T18:44:14.900Z,27.47
2023-02-11T18:46:44.411Z,29.27
2023-02-11T18:49:18.284Z,27.47
2023-02-11T18:51:47.811Z,27.63
2023-02-11T18:54:18.169Z,27.07
2023-02-11T18:56:47.954Z,29.67
2023-02-11T18:59:17.031Z,29.23
2023-02-11T19:01:47.026Z,27.70
2023-02-11T19:12:35.154Z,25.60
2023-02-11T19:15:08.983Z,26.47
2023-02-11T19:17:48.267Z,20.47
2023-02-11T19:21:14.289Z,22.87
2023-02-11T19:24:12.547Z,21.17
2023-02-11T19:27:09.978Z,20.37
2023-02-11T19:29:40.370Z,21.77
2023-02-11T19:32:10.018Z,22.13
2023-02-11T19:34:42.413Z,23.60
2023-02-11T19:37:42.092Z,20.43
2023-02-11T19:40:37.597Z,18.87
2023-02-11T19:43:30.397Z,22.27
2023-02-11T19:46:50.324Z,22.03
2023-02-11T19:49:47.923Z,18.70
2023-02-11T19:52:32.007Z,19.03
2023-02-11T19:55:14.069Z,19.60
2023-02-11T19:57:44.502Z,20.43
2023-02-11T20:00:18.158Z,19.10
2023-02-11T20:02:56.816Z,19.57
2023-02-11T20:05:32.189Z,19.53
2023-02-11T20:08:13.679Z,17.40
2023-02-11T20:11:13.610Z,17.93
2023-02-11T20:14:05.757Z,20.07
2023-02-11T20:16:50.998Z,18.10
2023-02-11T20:19:48.783Z,19.97
2023-02-11T20:22:18.489Z,18.13
2023-02-11T20:24:47.472Z,27.27
2023-02-11T20:27:19.016Z,16.10
2023-02-11T20:30:18.721Z,19.20
2023-02-11T20:33:04.375Z,32.67
2023-02-11T20:35:42.958Z,19.17
2023-02-11T20:38:29.729Z,21.33
2023-02-11T20:41:05.360Z,18.43
2023-02-11T20:43:37.859Z,19.20
2023-02-11T20:46:09.096Z,19.90
2023-02-11T20:48:37.976Z,25.60
2023-02-11T20:51:12.930Z,19.87
2023-02-11T20:53:51.692Z,21.47
2023-02-11T20:56:48.086Z,24.23
2023-02-11T20:59:22.218Z,23.63
2023-02-11T21:01:55.396Z,24.67
2023-02-11T21:04:32.809Z,21.53
2023-02-11T21:07:04.689Z,21.07
2023-02-11T21:09:40.725Z,19.87
2023-02-11T21:12:23.206Z,23.57
2023-02-11T21:14:54.253Z,24.03
2023-02-11T21:17:26.344Z,22.43
2023-02-11T21:19:55.103Z,26.57
2023-02-11T21:22:25.740Z,23.23
2023-02-11T21:24:54.440Z,21.17
2023-02-11T21:27:24.118Z,18.73
2023-02-11T21:34:17.564Z,21.83
2023-02-11T21:36:44.908Z,20.30
2023-02-11T21:39:15.360Z,22.00
2023-02-11T21:41:44.137Z,23.67
2023-02-11T21:44:13.229Z,20.80
2023-02-11T21:46:42.175Z,18.93
2023-02-11T21:49:11.398Z,20.70
2023-02-11T21:51:42.540Z,17.33
2023-02-11T21:54:13.248Z,20.50
2023-02-11T21:56:42.012Z,20.23
2023-02-11T21:59:14.926Z,20.30
2023-02-11T22:01:43.673Z,22.47
2023-02-11T22:04:12.470Z,23.80
2023-02-11T22:06:42.842Z,24.77
2023-02-11T22:09:12.310Z,25.07
2023-02-11T22:11:41.045Z,23.60
2023-02-11T22:14:10.028Z,25.07
2023-02-11T22:16:38.883Z,28.37
2023-02-11T22:19:07.799Z,28.00
2023-02-11T22:21:36.647Z,29.07
2023-02-11T22:24:24.100Z,32.57
2023-02-11T22:26:53.000Z,32.07
2023-02-11T22:29:21.820Z,29.73
2023-02-11T22:31:50.558Z,30.50
2023-02-11T22:34:33.671Z,32.33
2023-02-11T22:37:02.475Z,29.70
2023-02-11T22:39:32.525Z,34.13
2023-02-11T22:42:01.546Z,28.37
2023-02-11T22:44:30.445Z,34.07
2023-02-11T22:46:59.167Z,31.47
2023-02-11T22:49:39.600Z,29.07
2023-02-11T22:52:08.400Z,32.13
2023-02-11T22:54:39.012Z,37.03
2023-02-11T22:57:07.721Z,33.17
2023-02-11T22:59:36.480Z,33.87
2023-02-11T23:02:05.464Z,38.17
2023-02-11T23:04:34.202Z,41.20
2023-02-11T23:07:02.886Z,41.80
2023-02-11T23:09:31.610Z,38.93
2023-02-11T23:12:01.722Z,42.77
2023-02-11T23:14:30.508Z,42.10
2023-02-11T23:16:59.323Z,45.63
2023-02-11T23:19:28.160Z,45.40
2023-02-11T23:21:56.825Z,51.67
2023-02-11T23:24:25.586Z,47.83
2023-02-11T23:26:54.263Z,52.83
2023-02-11T23:29:30.385Z,46.40
2023-02-11T23:31:59.303Z,46.07
2023-02-11T23:34:27.996Z,51.83
2023-02-11T23:36:59.247Z,49.47
2023-02-11T23:39:27.961Z,55.77
2023-02-11T23:41:59.083Z,53.27
2023-02-11T23:44:28.044Z,53.73
2023-02-11T23:46:58.390Z,52.60
2023-02-11T23:49:27.294Z,57.57
2023-02-11T23:51:55.971Z,56.20
2023-02-11T23:54:24.971Z,56.03
2023-02-11T23:56:53.617Z,56.73
2023-02-11T23:59:22.272Z,58.57
